SWR2082 LSZH-LPPT
Flight info
| Callsign | SWR2082 |
|---|---|
| Flight time | 2h 28m |
| Altitude | 35000 |
| Route | VEBIT ROTOS ULMES VADAR NINTU MEBAK REPSI LERGA MINSO NARAK AGN LATEK PPN NEA ARDID INBOM |
| Aircraft | A21N/M-SDE2E3FGHIRWXY/LB1 |
Departure
| Time | 2026-05-07 20:07 |
|---|---|
| Airport | Zürich Airport (LSZH) |
Arrival
| Time | 2026-05-07 22:35 |
|---|---|
| Airport | Lisbon Humberto Delgado Airport (LPPT) |
| Time | Latitude | Longitude | Altitude | Speed | Heading |
|---|---|---|---|---|---|
| 2026-05-07 19:51 | 47.45173 | 8.55937 | 1412 ft | 0 kts | 186° |
| 2026-05-07 19:55 | 47.45198 | 8.55941 | 1412 ft | 4 kts | 186° |
| 2026-05-07 19:55 | 47.45224 | 8.55950 | 1412 ft | 4 kts | 206° |
| 2026-05-07 19:55 | 47.45243 | 8.55973 | 1418 ft | 4 kts | 246° |
| 2026-05-07 19:56 | 47.45246 | 8.55996 | 1412 ft | 0 kts | 276° |
| 2026-05-07 19:59 | 47.45249 | 8.55947 | 1412 ft | 9 kts | 276° |
| 2026-05-07 19:59 | 47.45256 | 8.55845 | 1414 ft | 11 kts | 276° |
| 2026-05-07 20:00 | 47.45266 | 8.55714 | 1412 ft | 14 kts | 276° |
| 2026-05-07 20:00 | 47.45294 | 8.55572 | 1412 ft | 16 kts | 320° |
| 2026-05-07 20:00 | 47.45397 | 8.55497 | 1411 ft | 17 kts | 333° |
| 2026-05-07 20:00 | 47.45511 | 8.55454 | 1409 ft | 19 kts | 51° |
| 2026-05-07 20:01 | 47.45515 | 8.55640 | 1413 ft | 19 kts | 94° |
| 2026-05-07 20:01 | 47.45505 | 8.55841 | 1416 ft | 20 kts | 95° |
| 2026-05-07 20:01 | 47.45488 | 8.56009 | 1412 ft | 17 kts | 91° |
| 2026-05-07 20:01 | 47.45481 | 8.56172 | 1413 ft | 16 kts | 95° |
| 2026-05-07 20:02 | 47.45548 | 8.56256 | 1416 ft | 14 kts | 9° |
| 2026-05-07 20:02 | 47.45630 | 8.56265 | 1418 ft | 4 kts | 8° |
| 2026-05-07 20:02 | 47.45632 | 8.56265 | 1418 ft | 0 kts | 7° |
| 2026-05-07 20:04 | 47.45634 | 8.56266 | 1423 ft | 5 kts | 7° |
| 2026-05-07 20:04 | 47.45690 | 8.56276 | 1418 ft | 10 kts | 7° |
| 2026-05-07 20:05 | 47.45769 | 8.56289 | 1423 ft | 13 kts | 7° |
| 2026-05-07 20:05 | 47.45868 | 8.56303 | 1422 ft | 15 kts | 4° |
| 2026-05-07 20:05 | 47.45983 | 8.56316 | 1419 ft | 18 kts | 5° |
| 2026-05-07 20:05 | 47.46093 | 8.56383 | 1417 ft | 17 kts | 37° |
| 2026-05-07 20:06 | 47.46177 | 8.56381 | 1415 ft | 12 kts | 317° |
| 2026-05-07 20:06 | 47.46256 | 8.56274 | 1413 ft | 35 kts | 318° |
| 2026-05-07 20:06 | 47.46646 | 8.55742 | 1400 ft | 114 kts | 317° |
| 2026-05-07 20:06 | 47.47376 | 8.54748 | 1402 ft | 168 kts | 317° |
| 2026-05-07 20:07 | 47.48253 | 8.53526 | 1880 ft | 176 kts | 317° |
| 2026-05-07 20:07 | 47.49164 | 8.52250 | 2524 ft | 185 kts | 317° |
| 2026-05-07 20:07 | 47.50010 | 8.50760 | 3207 ft | 193 kts | 301° |
| 2026-05-07 20:07 | 47.50560 | 8.48927 | 3851 ft | 202 kts | 295° |
| 2026-05-07 20:08 | 47.51187 | 8.46974 | 4305 ft | 220 kts | 282° |
| 2026-05-07 20:08 | 47.51048 | 8.44631 | 4571 ft | 245 kts | 245° |
| 2026-05-07 20:08 | 47.49918 | 8.42645 | 4937 ft | 264 kts | 211° |
| 2026-05-07 20:08 | 47.48220 | 8.41514 | 5625 ft | 270 kts | 201° |
| 2026-05-07 20:09 | 47.46477 | 8.40436 | 6399 ft | 274 kts | 204° |
| 2026-05-07 20:09 | 47.44746 | 8.39218 | 7175 ft | 277 kts | 207° |
| 2026-05-07 20:09 | 47.43028 | 8.37901 | 7953 ft | 280 kts | 208° |
| 2026-05-07 20:10 | 47.39590 | 8.35084 | 9509 ft | 286 kts | 210° |
| 2026-05-07 20:10 | 47.37879 | 8.33573 | 10261 ft | 291 kts | 217° |
| 2026-05-07 20:10 | 47.36528 | 8.31273 | 10594 ft | 308 kts | 244° |
| 2026-05-07 20:10 | 47.35968 | 8.28140 | 10880 ft | 327 kts | 265° |
| 2026-05-07 20:11 | 47.35694 | 8.24717 | 11151 ft | 346 kts | 254° |
| 2026-05-07 20:11 | 47.34799 | 8.21747 | 11388 ft | 362 kts | 240° |
| 2026-05-07 20:11 | 47.33466 | 8.18470 | 11943 ft | 369 kts | 239° |
| 2026-05-07 20:11 | 47.32159 | 8.15179 | 12610 ft | 372 kts | 240° |
| 2026-05-07 20:12 | 47.30898 | 8.11832 | 13258 ft | 374 kts | 242° |
| 2026-05-07 20:12 | 47.29662 | 8.08436 | 13866 ft | 377 kts | 242° |
| 2026-05-07 20:12 | 47.28431 | 8.05003 | 14445 ft | 381 kts | 242° |
| 2026-05-07 20:12 | 47.27195 | 8.01539 | 14998 ft | 384 kts | 243° |
| 2026-05-07 20:13 | 47.26098 | 7.97940 | 15529 ft | 387 kts | 248° |
| 2026-05-07 20:13 | 47.25071 | 7.94265 | 16057 ft | 390 kts | 248° |
| 2026-05-07 20:13 | 47.24040 | 7.90558 | 16554 ft | 393 kts | 248° |
| 2026-05-07 20:13 | 47.23000 | 7.86822 | 17042 ft | 395 kts | 248° |
| 2026-05-07 20:14 | 47.21948 | 7.83072 | 17515 ft | 398 kts | 248° |
| 2026-05-07 20:14 | 47.20888 | 7.79293 | 17968 ft | 401 kts | 248° |
| 2026-05-07 20:14 | 47.19835 | 7.75552 | 18398 ft | 403 kts | 247° |
| 2026-05-07 20:14 | 47.18552 | 7.71822 | 18816 ft | 406 kts | 237° |
| 2026-05-07 20:15 | 47.16892 | 7.68523 | 19248 ft | 408 kts | 232° |
| 2026-05-07 20:15 | 47.15108 | 7.65254 | 19657 ft | 411 kts | 231° |
| 2026-05-07 20:15 | 47.13312 | 7.61977 | 20081 ft | 413 kts | 231° |
| 2026-05-07 20:15 | 47.11511 | 7.58677 | 20490 ft | 415 kts | 232° |
| 2026-05-07 20:16 | 47.09993 | 7.55887 | 20827 ft | 417 kts | 232° |
| 2026-05-07 20:16 | 47.08183 | 7.52553 | 21221 ft | 419 kts | 232° |
| 2026-05-07 20:16 | 47.06471 | 7.49406 | 21577 ft | 422 kts | 232° |
| 2026-05-07 20:16 | 47.04670 | 7.46104 | 21857 ft | 403 kts | 232° |
| 2026-05-07 20:17 | 47.02926 | 7.42895 | 21945 ft | 411 kts | 232° |
| 2026-05-07 20:17 | 47.01122 | 7.39580 | 22077 ft | 421 kts | 232° |
| 2026-05-07 20:17 | 46.99283 | 7.36202 | 22363 ft | 426 kts | 232° |
| 2026-05-07 20:17 | 46.97426 | 7.32804 | 22727 ft | 429 kts | 232° |
| 2026-05-07 20:18 | 46.95561 | 7.29389 | 23115 ft | 431 kts | 232° |
| 2026-05-07 20:18 | 46.93682 | 7.25962 | 23502 ft | 433 kts | 232° |
| 2026-05-07 20:18 | 46.91792 | 7.22513 | 23899 ft | 435 kts | 232° |
| 2026-05-07 20:18 | 46.89892 | 7.19051 | 24277 ft | 438 kts | 232° |
| 2026-05-07 20:19 | 46.87982 | 7.15574 | 24654 ft | 440 kts | 232° |
| 2026-05-07 20:19 | 46.86060 | 7.12081 | 25029 ft | 442 kts | 232° |
| 2026-05-07 20:19 | 46.84134 | 7.08580 | 25401 ft | 444 kts | 232° |
| 2026-05-07 20:19 | 46.82191 | 7.05060 | 25763 ft | 445 kts | 232° |
| 2026-05-07 20:20 | 46.80876 | 7.02687 | 25991 ft | 447 kts | 232° |
| 2026-05-07 20:20 | 46.79156 | 6.99580 | 26286 ft | 448 kts | 232° |
| 2026-05-07 20:20 | 46.77192 | 6.96031 | 26607 ft | 450 kts | 232° |
| 2026-05-07 20:20 | 46.75226 | 6.92474 | 26905 ft | 451 kts | 232° |
| 2026-05-07 20:21 | 46.73253 | 6.88917 | 27279 ft | 451 kts | 232° |
| 2026-05-07 20:21 | 46.71285 | 6.85370 | 27687 ft | 449 kts | 232° |
| 2026-05-07 20:21 | 46.69321 | 6.81839 | 28075 ft | 448 kts | 232° |
| 2026-05-07 20:21 | 46.67363 | 6.78324 | 28441 ft | 446 kts | 232° |
| 2026-05-07 20:22 | 46.65484 | 6.74738 | 28801 ft | 444 kts | 237° |
| 2026-05-07 20:22 | 46.63849 | 6.70931 | 29158 ft | 443 kts | 239° |
| 2026-05-07 20:22 | 46.62259 | 6.67108 | 29519 ft | 441 kts | 239° |
| 2026-05-07 20:22 | 46.60672 | 6.63286 | 29872 ft | 440 kts | 239° |
| 2026-05-07 20:23 | 46.59087 | 6.59489 | 30233 ft | 439 kts | 239° |
| 2026-05-07 20:23 | 46.57505 | 6.55699 | 30564 ft | 438 kts | 239° |
| 2026-05-07 20:23 | 46.55926 | 6.51923 | 30889 ft | 437 kts | 239° |
| 2026-05-07 20:23 | 46.54350 | 6.48164 | 31184 ft | 436 kts | 239° |
| 2026-05-07 20:24 | 46.52773 | 6.44408 | 31489 ft | 435 kts | 239° |
| 2026-05-07 20:24 | 46.51200 | 6.40664 | 31799 ft | 434 kts | 239° |
| 2026-05-07 20:24 | 46.49628 | 6.36932 | 32072 ft | 433 kts | 239° |
| 2026-05-07 20:24 | 46.48058 | 6.33210 | 32346 ft | 432 kts | 239° |
| 2026-05-07 20:25 | 46.46491 | 6.29500 | 32615 ft | 431 kts | 239° |
| 2026-05-07 20:25 | 46.44924 | 6.25795 | 32878 ft | 431 kts | 239° |
| 2026-05-07 20:25 | 46.43352 | 6.22089 | 33141 ft | 430 kts | 239° |
| 2026-05-07 20:25 | 46.41790 | 6.18409 | 33388 ft | 429 kts | 239° |
| 2026-05-07 20:26 | 46.40229 | 6.14729 | 33633 ft | 428 kts | 239° |
| 2026-05-07 20:26 | 46.38674 | 6.11064 | 33849 ft | 427 kts | 239° |
| 2026-05-07 20:26 | 46.37119 | 6.07411 | 34061 ft | 426 kts | 239° |
| 2026-05-07 20:26 | 46.35561 | 6.03758 | 34258 ft | 426 kts | 239° |
| 2026-05-07 20:27 | 46.34004 | 6.00114 | 34426 ft | 426 kts | 239° |
| 2026-05-07 20:27 | 46.32444 | 5.96473 | 34608 ft | 426 kts | 239° |
| 2026-05-07 20:27 | 46.30881 | 5.92827 | 34763 ft | 426 kts | 239° |
| 2026-05-07 20:27 | 46.29318 | 5.89188 | 34908 ft | 426 kts | 238° |
| 2026-05-07 20:28 | 46.27756 | 5.85546 | 35039 ft | 427 kts | 239° |
| 2026-05-07 20:28 | 46.24628 | 5.78250 | 35051 ft | 426 kts | 238° |
| 2026-05-07 20:29 | 46.21497 | 5.70991 | 35029 ft | 427 kts | 238° |
| 2026-05-07 20:29 | 46.18353 | 5.63715 | 35020 ft | 426 kts | 238° |
| 2026-05-07 20:30 | 46.15208 | 5.56458 | 35020 ft | 428 kts | 238° |
| 2026-05-07 20:30 | 46.11868 | 5.49350 | 35018 ft | 427 kts | 236° |
| 2026-05-07 20:31 | 46.08486 | 5.42311 | 35008 ft | 427 kts | 236° |
| 2026-05-07 20:31 | 46.05091 | 5.35272 | 35009 ft | 428 kts | 236° |
| 2026-05-07 20:32 | 46.01702 | 5.28230 | 35008 ft | 428 kts | 236° |
| 2026-05-07 20:32 | 45.98304 | 5.21190 | 35011 ft | 428 kts | 236° |
| 2026-05-07 20:33 | 45.94917 | 5.14201 | 34996 ft | 425 kts | 236° |
| 2026-05-07 20:33 | 45.91539 | 5.07240 | 34998 ft | 426 kts | 236° |
| 2026-05-07 20:34 | 45.88147 | 5.00272 | 34999 ft | 425 kts | 235° |
| 2026-05-07 20:34 | 45.84752 | 4.93318 | 34995 ft | 426 kts | 235° |
| 2026-05-07 20:35 | 45.81352 | 4.86373 | 34994 ft | 425 kts | 235° |
| 2026-05-07 20:35 | 45.77946 | 4.79441 | 35003 ft | 426 kts | 235° |
| 2026-05-07 20:36 | 45.74530 | 4.72494 | 35003 ft | 426 kts | 235° |
| 2026-05-07 20:36 | 45.71123 | 4.65565 | 35009 ft | 426 kts | 235° |
| 2026-05-07 20:37 | 45.67700 | 4.58636 | 35010 ft | 426 kts | 235° |
| 2026-05-07 20:37 | 45.64265 | 4.51701 | 35016 ft | 426 kts | 235° |
| 2026-05-07 20:38 | 45.60834 | 4.44785 | 35015 ft | 427 kts | 235° |
| 2026-05-07 20:38 | 45.57394 | 4.37866 | 35020 ft | 426 kts | 235° |
| 2026-05-07 20:39 | 45.53950 | 4.30955 | 35030 ft | 427 kts | 235° |
| 2026-05-07 20:39 | 45.51082 | 4.25224 | 35028 ft | 427 kts | 235° |
| 2026-05-07 20:40 | 45.47631 | 4.18337 | 35030 ft | 427 kts | 234° |
| 2026-05-07 20:40 | 45.44173 | 4.11462 | 35021 ft | 427 kts | 234° |
| 2026-05-07 20:41 | 45.40712 | 4.04595 | 35023 ft | 427 kts | 234° |
| 2026-05-07 20:41 | 45.37251 | 3.97743 | 35026 ft | 427 kts | 234° |
| 2026-05-07 20:42 | 45.33778 | 3.90886 | 35038 ft | 426 kts | 234° |
| 2026-05-07 20:42 | 45.30308 | 3.84046 | 35025 ft | 427 kts | 234° |
| 2026-05-07 20:43 | 45.26834 | 3.77216 | 35031 ft | 427 kts | 234° |
| 2026-05-07 20:43 | 45.23412 | 3.70336 | 35028 ft | 427 kts | 235° |
| 2026-05-07 20:44 | 45.20042 | 3.63490 | 35018 ft | 426 kts | 235° |
| 2026-05-07 20:44 | 45.16648 | 3.56626 | 35020 ft | 425 kts | 235° |
| 2026-05-07 20:45 | 45.13252 | 3.49761 | 35020 ft | 425 kts | 235° |
| 2026-05-07 20:45 | 45.09850 | 3.42914 | 35022 ft | 425 kts | 235° |
| 2026-05-07 20:46 | 45.06456 | 3.36067 | 35017 ft | 425 kts | 235° |
| 2026-05-07 20:46 | 45.03053 | 3.29233 | 35021 ft | 425 kts | 235° |
| 2026-05-07 20:47 | 44.99646 | 3.22417 | 35021 ft | 424 kts | 235° |
| 2026-05-07 20:47 | 44.96231 | 3.15604 | 35013 ft | 425 kts | 235° |
| 2026-05-07 20:48 | 44.92818 | 3.08802 | 35011 ft | 425 kts | 234° |
| 2026-05-07 20:48 | 44.89392 | 3.02015 | 35013 ft | 425 kts | 234° |
| 2026-05-07 20:49 | 44.85970 | 2.95234 | 35005 ft | 425 kts | 234° |
| 2026-05-07 20:49 | 44.82681 | 2.88301 | 35001 ft | 425 kts | 237° |
| 2026-05-07 20:50 | 44.79474 | 2.81317 | 35007 ft | 424 kts | 237° |
| 2026-05-07 20:50 | 44.76271 | 2.74347 | 35008 ft | 424 kts | 237° |
| 2026-05-07 20:51 | 44.73049 | 2.67392 | 34999 ft | 424 kts | 237° |
| 2026-05-07 20:51 | 44.69824 | 2.60444 | 34998 ft | 424 kts | 237° |
| 2026-05-07 20:52 | 44.66598 | 2.53501 | 34988 ft | 424 kts | 237° |
| 2026-05-07 20:52 | 44.63371 | 2.46573 | 35002 ft | 423 kts | 236° |
| 2026-05-07 20:53 | 44.60134 | 2.39656 | 34996 ft | 424 kts | 236° |
| 2026-05-07 20:53 | 44.56895 | 2.32745 | 34987 ft | 423 kts | 236° |
| 2026-05-07 20:54 | 44.53680 | 2.25908 | 34991 ft | 423 kts | 236° |
| 2026-05-07 20:54 | 44.50444 | 2.19019 | 34987 ft | 423 kts | 236° |
| 2026-05-07 20:55 | 44.47208 | 2.12141 | 34986 ft | 423 kts | 236° |
| 2026-05-07 20:55 | 44.43966 | 2.05275 | 34986 ft | 423 kts | 236° |
| 2026-05-07 20:56 | 44.40715 | 1.98420 | 34986 ft | 423 kts | 236° |
| 2026-05-07 20:56 | 44.37455 | 1.91566 | 34985 ft | 424 kts | 236° |
| 2026-05-07 20:57 | 44.34198 | 1.84712 | 34989 ft | 423 kts | 236° |
| 2026-05-07 20:57 | 44.30934 | 1.77872 | 34991 ft | 423 kts | 236° |
| 2026-05-07 20:58 | 44.27717 | 1.70985 | 34982 ft | 423 kts | 237° |
| 2026-05-07 20:58 | 44.24542 | 1.64071 | 34983 ft | 423 kts | 237° |
| 2026-05-07 20:59 | 44.21362 | 1.57159 | 34978 ft | 423 kts | 237° |
| 2026-05-07 20:59 | 44.18175 | 1.50242 | 34981 ft | 424 kts | 237° |
| 2026-05-07 21:00 | 44.14982 | 1.43338 | 34977 ft | 424 kts | 237° |
| 2026-05-07 21:00 | 44.11779 | 1.36441 | 34972 ft | 425 kts | 236° |
| 2026-05-07 21:01 | 44.08567 | 1.29533 | 34970 ft | 425 kts | 236° |
| 2026-05-07 21:01 | 44.05345 | 1.22628 | 34972 ft | 426 kts | 236° |
| 2026-05-07 21:02 | 44.02115 | 1.15712 | 34971 ft | 427 kts | 236° |
| 2026-05-07 21:02 | 43.98877 | 1.08789 | 34971 ft | 427 kts | 236° |
| 2026-05-07 21:03 | 43.95644 | 1.01892 | 34970 ft | 426 kts | 236° |
| 2026-05-07 21:03 | 43.92398 | 0.94997 | 34970 ft | 427 kts | 236° |
| 2026-05-07 21:04 | 43.89126 | 0.88118 | 34969 ft | 427 kts | 233° |
| 2026-05-07 21:04 | 43.85283 | 0.81832 | 34972 ft | 428 kts | 227° |
| 2026-05-07 21:05 | 43.81331 | 0.75746 | 34964 ft | 428 kts | 227° |
| 2026-05-07 21:05 | 43.77359 | 0.69620 | 34961 ft | 428 kts | 227° |
| 2026-05-07 21:06 | 43.73377 | 0.63487 | 34960 ft | 428 kts | 227° |
| 2026-05-07 21:06 | 43.69386 | 0.57364 | 34962 ft | 428 kts | 227° |
| 2026-05-07 21:07 | 43.65394 | 0.51244 | 34959 ft | 429 kts | 227° |
| 2026-05-07 21:07 | 43.61401 | 0.45131 | 34960 ft | 429 kts | 227° |
| 2026-05-07 21:08 | 43.57403 | 0.39022 | 34963 ft | 430 kts | 227° |
| 2026-05-07 21:08 | 43.53392 | 0.32915 | 34961 ft | 429 kts | 227° |
| 2026-05-07 21:09 | 43.49375 | 0.26798 | 34962 ft | 434 kts | 227° |
| 2026-05-07 21:09 | 43.45316 | 0.20642 | 34962 ft | 434 kts | 227° |
| 2026-05-07 21:10 | 43.41257 | 0.14491 | 34958 ft | 434 kts | 227° |
| 2026-05-07 21:10 | 43.37188 | 0.08361 | 34963 ft | 434 kts | 227° |
| 2026-05-07 21:11 | 43.33121 | 0.02224 | 34963 ft | 434 kts | 227° |
| 2026-05-07 21:11 | 43.26982 | -0.06957 | 34961 ft | 437 kts | 229° |
| 2026-05-07 21:12 | 43.22867 | -0.13142 | 34961 ft | 440 kts | 229° |
| 2026-05-07 21:12 | 43.18745 | -0.19334 | 34957 ft | 439 kts | 229° |
| 2026-05-07 21:13 | 43.14618 | -0.25502 | 34959 ft | 439 kts | 229° |
| 2026-05-07 21:13 | 43.10483 | -0.31657 | 34952 ft | 439 kts | 229° |
| 2026-05-07 21:14 | 43.06341 | -0.37808 | 34953 ft | 439 kts | 229° |
| 2026-05-07 21:14 | 43.02203 | -0.43957 | 34948 ft | 440 kts | 229° |
| 2026-05-07 21:15 | 42.98056 | -0.50100 | 34944 ft | 439 kts | 229° |
| 2026-05-07 21:15 | 42.93932 | -0.56189 | 34950 ft | 439 kts | 229° |
| 2026-05-07 21:16 | 42.89818 | -0.62362 | 34951 ft | 440 kts | 232° |
| 2026-05-07 21:16 | 42.88128 | -0.65818 | 34950 ft | 437 kts | 243° |
| 2026-05-07 21:16 | 42.86986 | -0.69643 | 34951 ft | 437 kts | 255° |
| 2026-05-07 21:17 | 42.85821 | -0.77737 | 34955 ft | 435 kts | 261° |
| 2026-05-07 21:17 | 42.84826 | -0.85864 | 34950 ft | 435 kts | 261° |
| 2026-05-07 21:18 | 42.83757 | -0.93978 | 34960 ft | 435 kts | 260° |
| 2026-05-07 21:18 | 42.82670 | -1.02085 | 34958 ft | 435 kts | 260° |
| 2026-05-07 21:19 | 42.81587 | -1.10181 | 34955 ft | 435 kts | 260° |
| 2026-05-07 21:19 | 42.80499 | -1.18278 | 34948 ft | 435 kts | 260° |
| 2026-05-07 21:20 | 42.79409 | -1.26358 | 34952 ft | 434 kts | 260° |
| 2026-05-07 21:20 | 42.78304 | -1.34449 | 34962 ft | 434 kts | 260° |
| 2026-05-07 21:21 | 42.77195 | -1.42519 | 34960 ft | 434 kts | 259° |
| 2026-05-07 21:21 | 42.76056 | -1.50581 | 34958 ft | 433 kts | 260° |
| 2026-05-07 21:22 | 42.74940 | -1.58637 | 34958 ft | 434 kts | 260° |
| 2026-05-07 21:22 | 42.73835 | -1.66644 | 34958 ft | 434 kts | 260° |
| 2026-05-07 21:23 | 42.72163 | -1.74510 | 34960 ft | 435 kts | 251° |
| 2026-05-07 21:23 | 42.69994 | -1.82180 | 34960 ft | 435 kts | 250° |
| 2026-05-07 21:24 | 42.67818 | -1.89835 | 34960 ft | 434 kts | 250° |
| 2026-05-07 21:24 | 42.65652 | -1.97492 | 34961 ft | 434 kts | 250° |
| 2026-05-07 21:25 | 42.63487 | -2.05145 | 34961 ft | 434 kts | 250° |
| 2026-05-07 21:25 | 42.61320 | -2.12770 | 34963 ft | 433 kts | 250° |
| 2026-05-07 21:26 | 42.59173 | -2.20402 | 34962 ft | 433 kts | 250° |
| 2026-05-07 21:26 | 42.56995 | -2.28010 | 34960 ft | 432 kts | 250° |
| 2026-05-07 21:27 | 42.54817 | -2.35610 | 34960 ft | 433 kts | 250° |
| 2026-05-07 21:27 | 42.52630 | -2.43204 | 34962 ft | 432 kts | 250° |
| 2026-05-07 21:28 | 42.50812 | -2.49506 | 34959 ft | 432 kts | 250° |
| 2026-05-07 21:28 | 42.48635 | -2.57092 | 34964 ft | 432 kts | 250° |
| 2026-05-07 21:29 | 42.46445 | -2.64659 | 34961 ft | 431 kts | 250° |
| 2026-05-07 21:29 | 42.44245 | -2.72216 | 34962 ft | 431 kts | 250° |
| 2026-05-07 21:30 | 42.42043 | -2.79759 | 34953 ft | 430 kts | 250° |
| 2026-05-07 21:30 | 42.39843 | -2.87283 | 34952 ft | 430 kts | 250° |
| 2026-05-07 21:31 | 42.37643 | -2.94795 | 34955 ft | 429 kts | 250° |
| 2026-05-07 21:31 | 42.35451 | -3.02247 | 34951 ft | 429 kts | 250° |
| 2026-05-07 21:32 | 42.33232 | -3.09776 | 34952 ft | 428 kts | 250° |
| 2026-05-07 21:32 | 42.31011 | -3.17171 | 34962 ft | 427 kts | 250° |
| 2026-05-07 21:33 | 42.28792 | -3.24605 | 34961 ft | 426 kts | 250° |
| 2026-05-07 21:33 | 42.26595 | -3.32026 | 34963 ft | 425 kts | 251° |
| 2026-05-07 21:34 | 42.24408 | -3.39425 | 34962 ft | 424 kts | 250° |
| 2026-05-07 21:34 | 42.22208 | -3.46802 | 34963 ft | 423 kts | 251° |
| 2026-05-07 21:35 | 42.20008 | -3.54143 | 34963 ft | 422 kts | 251° |
| 2026-05-07 21:35 | 42.17801 | -3.61471 | 34968 ft | 422 kts | 250° |
| 2026-05-07 21:36 | 42.15597 | -3.68767 | 34962 ft | 420 kts | 251° |
| 2026-05-07 21:36 | 42.13388 | -3.76077 | 34963 ft | 420 kts | 251° |
| 2026-05-07 21:37 | 42.11174 | -3.83350 | 34961 ft | 420 kts | 251° |
| 2026-05-07 21:37 | 42.08962 | -3.90614 | 34970 ft | 419 kts | 251° |
| 2026-05-07 21:38 | 42.06742 | -3.97871 | 34966 ft | 419 kts | 251° |
| 2026-05-07 21:38 | 42.04525 | -4.05123 | 34963 ft | 419 kts | 251° |
| 2026-05-07 21:39 | 42.02216 | -4.12320 | 34957 ft | 421 kts | 247° |
| 2026-05-07 21:39 | 41.99564 | -4.19340 | 34954 ft | 421 kts | 246° |
| 2026-05-07 21:40 | 41.96894 | -4.26349 | 34953 ft | 421 kts | 246° |
| 2026-05-07 21:40 | 41.94205 | -4.33335 | 34943 ft | 421 kts | 246° |
| 2026-05-07 21:41 | 41.91522 | -4.40316 | 34943 ft | 421 kts | 246° |
| 2026-05-07 21:41 | 41.88867 | -4.47260 | 34943 ft | 421 kts | 246° |
| 2026-05-07 21:42 | 41.86192 | -4.54240 | 34935 ft | 420 kts | 246° |
| 2026-05-07 21:42 | 41.83510 | -4.61207 | 34943 ft | 421 kts | 246° |
| 2026-05-07 21:43 | 41.80825 | -4.68172 | 34936 ft | 420 kts | 245° |
| 2026-05-07 21:43 | 41.78142 | -4.75124 | 34940 ft | 420 kts | 245° |
| 2026-05-07 21:44 | 41.75455 | -4.82071 | 34932 ft | 420 kts | 245° |
| 2026-05-07 21:44 | 41.72775 | -4.89008 | 34930 ft | 419 kts | 245° |
| 2026-05-07 21:45 | 41.70087 | -4.95936 | 34931 ft | 419 kts | 245° |
| 2026-05-07 21:45 | 41.67390 | -5.02847 | 34929 ft | 419 kts | 245° |
| 2026-05-07 21:46 | 41.64686 | -5.09751 | 34931 ft | 419 kts | 245° |
| 2026-05-07 21:46 | 41.61974 | -5.16644 | 34929 ft | 419 kts | 244° |
| 2026-05-07 21:47 | 41.59264 | -5.23539 | 34928 ft | 419 kts | 245° |
| 2026-05-07 21:47 | 41.56556 | -5.30422 | 34930 ft | 419 kts | 244° |
| 2026-05-07 21:48 | 41.53831 | -5.37302 | 34931 ft | 419 kts | 244° |
| 2026-05-07 21:48 | 41.51117 | -5.44180 | 34930 ft | 419 kts | 244° |
| 2026-05-07 21:49 | 41.48391 | -5.51051 | 34931 ft | 419 kts | 244° |
| 2026-05-07 21:49 | 41.45659 | -5.57909 | 34930 ft | 418 kts | 244° |
| 2026-05-07 21:50 | 41.42950 | -5.64717 | 34930 ft | 418 kts | 244° |
| 2026-05-07 21:50 | 41.40216 | -5.71562 | 34930 ft | 419 kts | 244° |
| 2026-05-07 21:51 | 41.37475 | -5.78407 | 34930 ft | 419 kts | 244° |
| 2026-05-07 21:51 | 41.34733 | -5.85238 | 34931 ft | 419 kts | 244° |
| 2026-05-07 21:52 | 41.31977 | -5.92058 | 34931 ft | 418 kts | 244° |
| 2026-05-07 21:52 | 41.29225 | -5.98876 | 34930 ft | 419 kts | 244° |
| 2026-05-07 21:53 | 41.26470 | -6.05695 | 34931 ft | 419 kts | 243° |
| 2026-05-07 21:53 | 41.23709 | -6.12516 | 34930 ft | 419 kts | 243° |
| 2026-05-07 21:54 | 41.20942 | -6.19322 | 34931 ft | 419 kts | 243° |
| 2026-05-07 21:54 | 41.18177 | -6.26126 | 34930 ft | 419 kts | 243° |
| 2026-05-07 21:55 | 41.14921 | -6.32561 | 34931 ft | 421 kts | 235° |
| 2026-05-07 21:55 | 41.11399 | -6.38773 | 34933 ft | 421 kts | 235° |
| 2026-05-07 21:56 | 41.07721 | -6.44820 | 34929 ft | 423 kts | 228° |
| 2026-05-07 21:56 | 41.03531 | -6.50305 | 34931 ft | 423 kts | 227° |
| 2026-05-07 21:57 | 40.99379 | -6.55774 | 34931 ft | 423 kts | 227° |
| 2026-05-07 21:57 | 40.95220 | -6.61294 | 34931 ft | 424 kts | 227° |
| 2026-05-07 21:58 | 40.91057 | -6.66801 | 34935 ft | 423 kts | 227° |
| 2026-05-07 21:58 | 40.86893 | -6.72308 | 34934 ft | 423 kts | 227° |
| 2026-05-07 21:59 | 40.82729 | -6.77801 | 34931 ft | 423 kts | 227° |
| 2026-05-07 21:59 | 40.78558 | -6.83297 | 34928 ft | 423 kts | 227° |
| 2026-05-07 22:00 | 40.74391 | -6.88776 | 34921 ft | 423 kts | 227° |
| 2026-05-07 22:00 | 40.70219 | -6.94257 | 34921 ft | 424 kts | 226° |
| 2026-05-07 22:01 | 40.66039 | -6.99731 | 34921 ft | 423 kts | 226° |
| 2026-05-07 22:01 | 40.61859 | -7.05202 | 34919 ft | 424 kts | 226° |
| 2026-05-07 22:02 | 40.57678 | -7.10671 | 34922 ft | 424 kts | 226° |
| 2026-05-07 22:02 | 40.53494 | -7.16118 | 34920 ft | 423 kts | 226° |
| 2026-05-07 22:03 | 40.49308 | -7.21556 | 34919 ft | 423 kts | 226° |
| 2026-05-07 22:03 | 40.45112 | -7.26993 | 34920 ft | 423 kts | 226° |
| 2026-05-07 22:04 | 40.40921 | -7.32423 | 34920 ft | 423 kts | 226° |
| 2026-05-07 22:04 | 40.36733 | -7.37849 | 34919 ft | 423 kts | 226° |
| 2026-05-07 22:05 | 40.32537 | -7.43263 | 34921 ft | 423 kts | 226° |
| 2026-05-07 22:05 | 40.28343 | -7.48674 | 34921 ft | 423 kts | 226° |
| 2026-05-07 22:06 | 40.24138 | -7.54077 | 34920 ft | 423 kts | 225° |
| 2026-05-07 22:06 | 40.19936 | -7.59470 | 34922 ft | 423 kts | 225° |
| 2026-05-07 22:07 | 40.15734 | -7.64868 | 34919 ft | 423 kts | 225° |
| 2026-05-07 22:07 | 40.11531 | -7.70244 | 34921 ft | 423 kts | 225° |
| 2026-05-07 22:08 | 40.07313 | -7.75615 | 34922 ft | 423 kts | 225° |
| 2026-05-07 22:08 | 40.03130 | -7.80954 | 34920 ft | 423 kts | 225° |
| 2026-05-07 22:09 | 39.98917 | -7.86314 | 34920 ft | 423 kts | 225° |
| 2026-05-07 22:09 | 39.94693 | -7.91673 | 34921 ft | 423 kts | 225° |
| 2026-05-07 22:10 | 39.90474 | -7.97022 | 34921 ft | 423 kts | 225° |
| 2026-05-07 22:10 | 39.86250 | -8.02358 | 34921 ft | 423 kts | 225° |
| 2026-05-07 22:11 | 39.82020 | -8.07695 | 34919 ft | 423 kts | 225° |
| 2026-05-07 22:11 | 39.77796 | -8.13027 | 34918 ft | 423 kts | 225° |
| 2026-05-07 22:12 | 39.73568 | -8.18349 | 34920 ft | 423 kts | 225° |
| 2026-05-07 22:12 | 39.69339 | -8.23666 | 34937 ft | 423 kts | 225° |
| 2026-05-07 22:13 | 39.65109 | -8.28967 | 34929 ft | 423 kts | 225° |
| 2026-05-07 22:13 | 39.60874 | -8.34266 | 34941 ft | 423 kts | 225° |
| 2026-05-07 22:14 | 39.56644 | -8.39554 | 34930 ft | 422 kts | 225° |
| 2026-05-07 22:14 | 39.52407 | -8.44829 | 34932 ft | 422 kts | 224° |
| 2026-05-07 22:15 | 39.48173 | -8.50102 | 34932 ft | 422 kts | 224° |
| 2026-05-07 22:15 | 39.44307 | -8.54917 | 33657 ft | 421 kts | 224° |
| 2026-05-07 22:16 | 39.42178 | -8.57559 | 32708 ft | 426 kts | 224° |
| 2026-05-07 22:16 | 39.40029 | -8.60221 | 31804 ft | 430 kts | 224° |
| 2026-05-07 22:16 | 39.37864 | -8.62900 | 30877 ft | 433 kts | 224° |
| 2026-05-07 22:16 | 39.35683 | -8.65602 | 29959 ft | 435 kts | 224° |
| 2026-05-07 22:17 | 39.33470 | -8.68308 | 28978 ft | 439 kts | 223° |
| 2026-05-07 22:17 | 39.31211 | -8.70976 | 28026 ft | 441 kts | 222° |
| 2026-05-07 22:17 | 39.28951 | -8.73632 | 27331 ft | 437 kts | 222° |
| 2026-05-07 22:17 | 39.26717 | -8.76275 | 26662 ft | 433 kts | 222° |
| 2026-05-07 22:18 | 39.24519 | -8.78901 | 25990 ft | 429 kts | 223° |
| 2026-05-07 22:18 | 39.20181 | -8.84080 | 24623 ft | 421 kts | 222° |
| 2026-05-07 22:18 | 39.18039 | -8.86629 | 23941 ft | 418 kts | 222° |
| 2026-05-07 22:19 | 39.15909 | -8.89155 | 23257 ft | 414 kts | 222° |
| 2026-05-07 22:19 | 39.13802 | -8.91654 | 22621 ft | 410 kts | 222° |
| 2026-05-07 22:19 | 39.11716 | -8.94121 | 21981 ft | 406 kts | 222° |
| 2026-05-07 22:19 | 39.09647 | -8.96572 | 21335 ft | 402 kts | 222° |
| 2026-05-07 22:20 | 39.07601 | -8.98991 | 20712 ft | 397 kts | 221° |
| 2026-05-07 22:20 | 39.05573 | -9.01385 | 20084 ft | 394 kts | 221° |
| 2026-05-07 22:20 | 39.03566 | -9.03751 | 19458 ft | 390 kts | 221° |
| 2026-05-07 22:20 | 39.01577 | -9.06092 | 18829 ft | 386 kts | 221° |
| 2026-05-07 22:21 | 38.99604 | -9.08414 | 18206 ft | 382 kts | 221° |
| 2026-05-07 22:21 | 38.97652 | -9.10714 | 17594 ft | 379 kts | 221° |
| 2026-05-07 22:21 | 38.95721 | -9.12986 | 16984 ft | 375 kts | 221° |
| 2026-05-07 22:21 | 38.93800 | -9.15241 | 16369 ft | 372 kts | 221° |
| 2026-05-07 22:22 | 38.91898 | -9.17479 | 15762 ft | 369 kts | 221° |
| 2026-05-07 22:22 | 38.90011 | -9.19696 | 15157 ft | 366 kts | 221° |
| 2026-05-07 22:22 | 38.88137 | -9.21896 | 14559 ft | 364 kts | 221° |
| 2026-05-07 22:22 | 38.86278 | -9.24075 | 13957 ft | 361 kts | 221° |
| 2026-05-07 22:23 | 38.84427 | -9.26237 | 13312 ft | 357 kts | 221° |
| 2026-05-07 22:23 | 38.82761 | -9.28505 | 12734 ft | 352 kts | 230° |
| 2026-05-07 22:23 | 38.81031 | -9.30682 | 11964 ft | 349 kts | 215° |
| 2026-05-07 22:23 | 38.78921 | -9.32180 | 11230 ft | 346 kts | 202° |
| 2026-05-07 22:24 | 38.76696 | -9.33285 | 10737 ft | 338 kts | 199° |
| 2026-05-07 22:24 | 38.74523 | -9.34279 | 10470 ft | 324 kts | 199° |
| 2026-05-07 22:24 | 38.72445 | -9.35216 | 10189 ft | 310 kts | 199° |
| 2026-05-07 22:24 | 38.70458 | -9.36109 | 9933 ft | 296 kts | 199° |
| 2026-05-07 22:25 | 38.68559 | -9.36961 | 9707 ft | 283 kts | 199° |
| 2026-05-07 22:25 | 38.66732 | -9.37781 | 9343 ft | 275 kts | 199° |
| 2026-05-07 22:25 | 38.64938 | -9.38586 | 8856 ft | 272 kts | 199° |
| 2026-05-07 22:25 | 38.63151 | -9.39385 | 8345 ft | 271 kts | 199° |
| 2026-05-07 22:26 | 38.61377 | -9.40174 | 7824 ft | 270 kts | 199° |
| 2026-05-07 22:26 | 38.59607 | -9.40954 | 7325 ft | 268 kts | 199° |
| 2026-05-07 22:26 | 38.57850 | -9.41722 | 6829 ft | 266 kts | 199° |
| 2026-05-07 22:26 | 38.56101 | -9.42480 | 6325 ft | 265 kts | 199° |
| 2026-05-07 22:27 | 38.54361 | -9.43227 | 5820 ft | 263 kts | 199° |
| 2026-05-07 22:27 | 38.52622 | -9.43941 | 5303 ft | 262 kts | 193° |
| 2026-05-07 22:27 | 38.50820 | -9.44041 | 4772 ft | 261 kts | 169° |
| 2026-05-07 22:27 | 38.49145 | -9.43187 | 4245 ft | 262 kts | 145° |
| 2026-05-07 22:28 | 38.47982 | -9.41446 | 3821 ft | 261 kts | 111° |
| 2026-05-07 22:28 | 38.47836 | -9.39165 | 3418 ft | 265 kts | 76° |
| 2026-05-07 22:28 | 38.48569 | -9.37013 | 3521 ft | 268 kts | 58° |
| 2026-05-07 22:28 | 38.49627 | -9.35070 | 4024 ft | 266 kts | 51° |
| 2026-05-07 22:29 | 38.50786 | -9.33202 | 4566 ft | 267 kts | 52° |
| 2026-05-07 22:29 | 38.51865 | -9.31439 | 5000 ft | 249 kts | 51° |
| 2026-05-07 22:29 | 38.53103 | -9.29831 | 5286 ft | 251 kts | 37° |
| 2026-05-07 22:29 | 38.54361 | -9.28362 | 5108 ft | 242 kts | 49° |
| 2026-05-07 22:30 | 38.55458 | -9.26768 | 4829 ft | 236 kts | 45° |
| 2026-05-07 22:30 | 38.56680 | -9.25403 | 4535 ft | 231 kts | 35° |
| 2026-05-07 22:30 | 38.58026 | -9.24335 | 4244 ft | 226 kts | 27° |
| 2026-05-07 22:30 | 38.59445 | -9.23532 | 3951 ft | 220 kts | 18° |
| 2026-05-07 22:31 | 38.60833 | -9.22813 | 3710 ft | 210 kts | 21° |
| 2026-05-07 22:31 | 38.62164 | -9.22111 | 3442 ft | 204 kts | 21° |
| 2026-05-07 22:31 | 38.63456 | -9.21424 | 3160 ft | 199 kts | 21° |
| 2026-05-07 22:31 | 38.64725 | -9.20749 | 2880 ft | 195 kts | 21° |
| 2026-05-07 22:32 | 38.65960 | -9.20089 | 2611 ft | 190 kts | 21° |
| 2026-05-07 22:32 | 38.67164 | -9.19448 | 2355 ft | 184 kts | 21° |
| 2026-05-07 22:32 | 38.68317 | -9.18833 | 2114 ft | 174 kts | 21° |
| 2026-05-07 22:32 | 38.69383 | -9.18263 | 1925 ft | 155 kts | 21° |
| 2026-05-07 22:33 | 38.70322 | -9.17762 | 1707 ft | 143 kts | 21° |
| 2026-05-07 22:33 | 38.71235 | -9.17275 | 1515 ft | 142 kts | 21° |
| 2026-05-07 22:33 | 38.72132 | -9.16795 | 1336 ft | 142 kts | 21° |
| 2026-05-07 22:33 | 38.73041 | -9.16310 | 1146 ft | 141 kts | 21° |
| 2026-05-07 22:34 | 38.73947 | -9.15826 | 958 ft | 141 kts | 22° |
| 2026-05-07 22:34 | 38.74848 | -9.15345 | 770 ft | 140 kts | 22° |
| 2026-05-07 22:34 | 38.75747 | -9.14864 | 586 ft | 140 kts | 22° |
| 2026-05-07 22:34 | 38.76645 | -9.14385 | 405 ft | 139 kts | 22° |
| 2026-05-07 22:35 | 38.77489 | -9.13933 | 369 ft | 116 kts | 22° |
| 2026-05-07 22:35 | 38.77958 | -9.13681 | 371 ft | 57 kts | 22° |
| 2026-05-07 22:35 | 38.78188 | -9.13555 | 372 ft | 28 kts | 29° |
| 2026-05-07 22:35 | 38.78316 | -9.13426 | 369 ft | 10 kts | 49° |
| 2026-05-07 22:36 | 38.78363 | -9.13353 | 368 ft | 11 kts | 59° |
| 2026-05-07 22:36 | 38.78331 | -9.13282 | 365 ft | 12 kts | 181° |
| 2026-05-07 22:36 | 38.78244 | -9.13313 | 364 ft | 14 kts | 201° |
| 2026-05-07 22:36 | 38.78210 | -9.13330 | 364 ft | 0 kts | 201° |
| 2026-05-07 22:37 | 38.78198 | -9.13336 | 368 ft | 4 kts | 201° |
| 2026-05-07 22:37 | 38.78163 | -9.13353 | 364 ft | 7 kts | 201° |
| 2026-05-07 22:37 | 38.78102 | -9.13382 | 365 ft | 11 kts | 201° |
| 2026-05-07 22:37 | 38.78015 | -9.13413 | 362 ft | 15 kts | 175° |
| 2026-05-07 22:38 | 38.77903 | -9.13388 | 356 ft | 18 kts | 168° |
| 2026-05-07 22:38 | 38.77771 | -9.13347 | 353 ft | 21 kts | 166° |
| 2026-05-07 22:38 | 38.77622 | -9.13321 | 351 ft | 23 kts | 177° |
| 2026-05-07 22:38 | 38.77461 | -9.13286 | 350 ft | 19 kts | 167° |
| 2026-05-07 22:39 | 38.77382 | -9.13266 | 343 ft | 14 kts | 170° |
| 2026-05-07 22:39 | 38.77274 | -9.13244 | 352 ft | 18 kts | 172° |
| 2026-05-07 22:39 | 38.77198 | -9.13211 | 349 ft | 5 kts | 103° |
| 2026-05-07 22:39 | 38.77202 | -9.13164 | 347 ft | 5 kts | 79° |
| 2026-05-07 22:40 | 38.77206 | -9.13143 | 342 ft | 0 kts | 79° |